sensor_id;sensor_type;location;lat;lon;timestamp;P1;durP1;ratioP1;P2;durP2;ratioP2
37365;SDS011;23239;51.504;7.456;2022-10-16T00:01:43;5.6;;;2.6;;
37365;SDS011;23239;51.504;7.456;2022-10-16T00:06:43;3.4;;;2.1;;
37365;SDS011;23239;51.504;7.456;2022-10-16T00:11:43;3.9;;;1.8;;
37365;SDS011;23239;51.504;7.456;2022-10-16T00:16:43;3.5;;;2;;
37365;SDS011;23239;51.504;7.456;2022-10-16T00:21:43;3.9;;;1.7;;
37365;SDS011;23239;51.504;7.456;2022-10-16T00:26:43;5.4;;;1.9;;
37365;SDS011;23239;51.504;7.456;2022-10-16T00:31:43;5.3;;;1.9;;
37365;SDS011;23239;51.504;7.456;2022-10-16T00:36:43;5.1;;;2.3;;
37365;SDS011;23239;51.504;7.456;2022-10-16T00:41:43;4.2;;;1.9;;
37365;SDS011;23239;51.504;7.456;2022-10-16T00:46:43;3.7;;;1.7;;
37365;SDS011;23239;51.504;7.456;2022-10-16T00:51:44;4.6;;;1.8;;
37365;SDS011;23239;51.504;7.456;2022-10-16T00:56:43;5;;;2.1;;
37365;SDS011;23239;51.504;7.456;2022-10-16T01:01:43;4.2;;;1.8;;
37365;SDS011;23239;51.504;7.456;2022-10-16T01:06:46;4.6;;;1.7;;
37365;SDS011;23239;51.504;7.456;2022-10-16T01:11:44;3.3;;;1.4;;
37365;SDS011;23239;51.504;7.456;2022-10-16T01:16:43;3.7;;;1.6;;
37365;SDS011;23239;51.504;7.456;2022-10-16T01:21:44;1.7;;;1.3;;
37365;SDS011;23239;51.504;7.456;2022-10-16T01:26:49;3.2;;;1.4;;
37365;SDS011;23239;51.504;7.456;2022-10-16T01:31:44;3.4;;;1.4;;
37365;SDS011;23239;51.504;7.456;2022-10-16T01:36:45;2.9;;;1.4;;
37365;SDS011;23239;51.504;7.456;2022-10-16T01:41:44;3.4;;;1.3;;
37365;SDS011;23239;51.504;7.456;2022-10-16T01:46:43;4.6;;;1.6;;
37365;SDS011;23239;51.504;7.456;2022-10-16T01:51:43;3.5;;;1.5;;
37365;SDS011;23239;51.504;7.456;2022-10-16T01:56:43;4.4;;;1.6;;
37365;SDS011;23239;51.504;7.456;2022-10-16T02:01:44;5;;;1.3;;
37365;SDS011;23239;51.504;7.456;2022-10-16T02:06:43;4.2;;;1.5;;
37365;SDS011;23239;51.504;7.456;2022-10-16T02:11:43;4.7;;;1.5;;
37365;SDS011;23239;51.504;7.456;2022-10-16T02:16:44;2.8;;;1.4;;
37365;SDS011;23239;51.504;7.456;2022-10-16T02:21:44;2.3;;;1.2;;
37365;SDS011;23239;51.504;7.456;2022-10-16T02:26:43;3.2;;;1.2;;
37365;SDS011;23239;51.504;7.456;2022-10-16T02:31:43;5;;;1.2;;
37365;SDS011;23239;51.504;7.456;2022-10-16T02:36:43;3.2;;;1.4;;
37365;SDS011;23239;51.504;7.456;2022-10-16T02:41:43;3.9;;;1.3;;
37365;SDS011;23239;51.504;7.456;2022-10-16T02:46:43;4.6;;;1.4;;
37365;SDS011;23239;51.504;7.456;2022-10-16T02:51:43;4.6;;;1.3;;
37365;SDS011;23239;51.504;7.456;2022-10-16T02:56:43;3.1;;;1.3;;
37365;SDS011;23239;51.504;7.456;2022-10-16T03:01:43;2.1;;;1.3;;
37365;SDS011;23239;51.504;7.456;2022-10-16T03:06:43;2.1;;;1.1;;
37365;SDS011;23239;51.504;7.456;2022-10-16T03:11:43;2.6;;;1.3;;
37365;SDS011;23239;51.504;7.456;2022-10-16T03:16:43;3.3;;;1.2;;
37365;SDS011;23239;51.504;7.456;2022-10-16T03:21:43;2.6;;;1.2;;
37365;SDS011;23239;51.504;7.456;2022-10-16T03:26:43;2.3;;;1;;
37365;SDS011;23239;51.504;7.456;2022-10-16T03:31:43;5.3;;;1;;
37365;SDS011;23239;51.504;7.456;2022-10-16T03:36:43;2.8;;;1;;
37365;SDS011;23239;51.504;7.456;2022-10-16T03:41:43;2.5;;;0.9;;
37365;SDS011;23239;51.504;7.456;2022-10-16T03:46:43;2.8;;;1;;
37365;SDS011;23239;51.504;7.456;2022-10-16T03:51:43;2.9;;;0.9;;
37365;SDS011;23239;51.504;7.456;2022-10-16T03:56:43;2.2;;;1.1;;
37365;SDS011;23239;51.504;7.456;2022-10-16T04:01:43;2.3;;;1;;
37365;SDS011;23239;51.504;7.456;2022-10-16T04:06:43;1.3;;;0.8;;
37365;SDS011;23239;51.504;7.456;2022-10-16T04:11:43;3.3;;;1.1;;
37365;SDS011;23239;51.504;7.456;2022-10-16T04:16:43;1;;;0.8;;
37365;SDS011;23239;51.504;7.456;2022-10-16T04:21:43;1.4;;;0.7;;
37365;SDS011;23239;51.504;7.456;2022-10-16T04:26:43;2.1;;;0.7;;
37365;SDS011;23239;51.504;7.456;2022-10-16T04:31:43;1.7;;;0.9;;
37365;SDS011;23239;51.504;7.456;2022-10-16T04:36:43;1.2;;;0.9;;
37365;SDS011;23239;51.504;7.456;2022-10-16T04:41:43;1.8;;;0.8;;
37365;SDS011;23239;51.504;7.456;2022-10-16T04:46:43;3.4;;;0.8;;
37365;SDS011;23239;51.504;7.456;2022-10-16T04:51:43;2.5;;;0.9;;
37365;SDS011;23239;51.504;7.456;2022-10-16T04:56:43;0.9;;;0.8;;
37365;SDS011;23239;51.504;7.456;2022-10-16T05:01:43;1.7;;;1;;
37365;SDS011;23239;51.504;7.456;2022-10-16T05:06:43;0.8;;;0.6;;
37365;SDS011;23239;51.504;7.456;2022-10-16T05:11:43;2.9;;;0.7;;
37365;SDS011;23239;51.504;7.456;2022-10-16T05:16:43;1.3;;;1;;
37365;SDS011;23239;51.504;7.456;2022-10-16T05:21:43;2.8;;;0.8;;
37365;SDS011;23239;51.504;7.456;2022-10-16T05:26:43;2.8;;;0.9;;
37365;SDS011;23239;51.504;7.456;2022-10-16T05:31:43;3.5;;;0.9;;
37365;SDS011;23239;51.504;7.456;2022-10-16T05:36:43;1.7;;;0.7;;
37365;SDS011;23239;51.504;7.456;2022-10-16T05:41:43;1.4;;;0.8;;
37365;SDS011;23239;51.504;7.456;2022-10-16T05:46:43;1.4;;;0.8;;
37365;SDS011;23239;51.504;7.456;2022-10-16T05:51:43;2;;;1;;
37365;SDS011;23239;51.504;7.456;2022-10-16T05:56:43;2.6;;;1.2;;
37365;SDS011;23239;51.504;7.456;2022-10-16T06:01:43;3.4;;;1.1;;
37365;SDS011;23239;51.504;7.456;2022-10-16T06:06:43;1.9;;;1;;
37365;SDS011;23239;51.504;7.456;2022-10-16T06:11:43;1;;;0.8;;
37365;SDS011;23239;51.504;7.456;2022-10-16T06:16:43;3.1;;;1.1;;
37365;SDS011;23239;51.504;7.456;2022-10-16T06:21:43;1.8;;;1;;
37365;SDS011;23239;51.504;7.456;2022-10-16T06:26:43;5.8;;;1.2;;
37365;SDS011;23239;51.504;7.456;2022-10-16T06:31:43;2.2;;;1.1;;
37365;SDS011;23239;51.504;7.456;2022-10-16T06:36:43;2.7;;;1.1;;
37365;SDS011;23239;51.504;7.456;2022-10-16T06:41:43;3.3;;;1;;
37365;SDS011;23239;51.504;7.456;2022-10-16T06:46:43;2.3;;;1.1;;
37365;SDS011;23239;51.504;7.456;2022-10-16T06:51:43;2;;;1;;
37365;SDS011;23239;51.504;7.456;2022-10-16T06:56:43;2.3;;;1;;
37365;SDS011;23239;51.504;7.456;2022-10-16T07:01:43;2;;;1;;
37365;SDS011;23239;51.504;7.456;2022-10-16T07:06:43;2.2;;;1;;
37365;SDS011;23239;51.504;7.456;2022-10-16T07:11:43;1.8;;;1.1;;
37365;SDS011;23239;51.504;7.456;2022-10-16T07:16:43;1.7;;;1;;
37365;SDS011;23239;51.504;7.456;2022-10-16T07:21:43;1.5;;;1.1;;
37365;SDS011;23239;51.504;7.456;2022-10-16T07:26:44;2.8;;;1.2;;
37365;SDS011;23239;51.504;7.456;2022-10-16T07:31:44;2.3;;;0.9;;
37365;SDS011;23239;51.504;7.456;2022-10-16T07:36:43;2.1;;;1.1;;
37365;SDS011;23239;51.504;7.456;2022-10-16T07:41:43;4.2;;;1.2;;
37365;SDS011;23239;51.504;7.456;2022-10-16T07:46:43;2.8;;;1.3;;
37365;SDS011;23239;51.504;7.456;2022-10-16T07:51:43;2.9;;;1.5;;
37365;SDS011;23239;51.504;7.456;2022-10-16T07:56:43;1.9;;;1.2;;
37365;SDS011;23239;51.504;7.456;2022-10-16T08:01:43;2.9;;;1.3;;
37365;SDS011;23239;51.504;7.456;2022-10-16T08:06:43;5.5;;;1.5;;
37365;SDS011;23239;51.504;7.456;2022-10-16T08:11:43;2.4;;;1.4;;
37365;SDS011;23239;51.504;7.456;2022-10-16T08:16:43;1.1;;;1;;
37365;SDS011;23239;51.504;7.456;2022-10-16T08:21:46;4.6;;;1.2;;
37365;SDS011;23239;51.504;7.456;2022-10-16T08:26:43;3.8;;;1;;
37365;SDS011;23239;51.504;7.456;2022-10-16T08:31:43;3.9;;;1.5;;
37365;SDS011;23239;51.504;7.456;2022-10-16T08:36:43;2.8;;;1.2;;
37365;SDS011;23239;51.504;7.456;2022-10-16T08:41:53;3.1;;;1;;
37365;SDS011;23239;51.504;7.456;2022-10-16T08:46:44;5.5;;;1.5;;
37365;SDS011;23239;51.504;7.456;2022-10-16T08:51:43;2.3;;;1.1;;
37365;SDS011;23239;51.504;7.456;2022-10-16T08:56:43;3.9;;;1.2;;
37365;SDS011;23239;51.504;7.456;2022-10-16T09:01:44;6.8;;;1.3;;
37365;SDS011;23239;51.504;7.456;2022-10-16T09:06:45;2.7;;;1.1;;
37365;SDS011;23239;51.504;7.456;2022-10-16T09:11:45;3;;;1;;
37365;SDS011;23239;51.504;7.456;2022-10-16T09:16:44;3.8;;;1.1;;
37365;SDS011;23239;51.504;7.456;2022-10-16T09:21:44;3;;;0.8;;
37365;SDS011;23239;51.504;7.456;2022-10-16T09:26:43;1.9;;;0.6;;
37365;SDS011;23239;51.504;7.456;2022-10-16T09:31:43;1.6;;;1;;
37365;SDS011;23239;51.504;7.456;2022-10-16T09:36:43;3.1;;;0.7;;
37365;SDS011;23239;51.504;7.456;2022-10-16T09:41:44;3.7;;;1;;
37365;SDS011;23239;51.504;7.456;2022-10-16T09:46:43;6.7;;;1.1;;
37365;SDS011;23239;51.504;7.456;2022-10-16T09:51:43;4;;;0.7;;
37365;SDS011;23239;51.504;7.456;2022-10-16T09:56:43;2.3;;;0.7;;
37365;SDS011;23239;51.504;7.456;2022-10-16T10:01:44;4.5;;;0.9;;
37365;SDS011;23239;51.504;7.456;2022-10-16T10:06:44;3.6;;;0.7;;
37365;SDS011;23239;51.504;7.456;2022-10-16T10:11:44;2.8;;;0.7;;
37365;SDS011;23239;51.504;7.456;2022-10-16T10:16:43;3;;;0.9;;
37365;SDS011;23239;51.504;7.456;2022-10-16T10:21:45;1.8;;;0.8;;
37365;SDS011;23239;51.504;7.456;2022-10-16T10:26:47;2.6;;;1;;
37365;SDS011;23239;51.504;7.456;2022-10-16T10:31:44;2.2;;;1;;
37365;SDS011;23239;51.504;7.456;2022-10-16T10:36:43;4.6;;;1.2;;
37365;SDS011;23239;51.504;7.456;2022-10-16T10:41:52;3.3;;;0.8;;
37365;SDS011;23239;51.504;7.456;2022-10-16T10:46:45;3.9;;;1.1;;
37365;SDS011;23239;51.504;7.456;2022-10-16T10:51:44;4.6;;;0.9;;
37365;SDS011;23239;51.504;7.456;2022-10-16T10:56:45;2.4;;;0.9;;
37365;SDS011;23239;51.504;7.456;2022-10-16T11:01:45;2.8;;;0.8;;
37365;SDS011;23239;51.504;7.456;2022-10-16T11:06:44;3;;;0.5;;
37365;SDS011;23239;51.504;7.456;2022-10-16T11:11:44;3.4;;;1.1;;
37365;SDS011;23239;51.504;7.456;2022-10-16T11:16:44;3.1;;;0.7;;
37365;SDS011;23239;51.504;7.456;2022-10-16T11:21:44;3.6;;;0.8;;
37365;SDS011;23239;51.504;7.456;2022-10-16T11:26:43;2.4;;;1;;
37365;SDS011;23239;51.504;7.456;2022-10-16T11:31:44;3;;;0.9;;
37365;SDS011;23239;51.504;7.456;2022-10-16T11:36:44;2.6;;;0.7;;
37365;SDS011;23239;51.504;7.456;2022-10-16T11:41:44;2.8;;;0.6;;
37365;SDS011;23239;51.504;7.456;2022-10-16T11:46:45;4.3;;;0.8;;
37365;SDS011;23239;51.504;7.456;2022-10-16T11:51:45;4;;;0.9;;
37365;SDS011;23239;51.504;7.456;2022-10-16T11:56:44;2.3;;;0.6;;
37365;SDS011;23239;51.504;7.456;2022-10-16T12:01:44;3.8;;;0.8;;
37365;SDS011;23239;51.504;7.456;2022-10-16T12:06:44;2.7;;;0.7;;
37365;SDS011;23239;51.504;7.456;2022-10-16T12:11:43;4;;;0.6;;
37365;SDS011;23239;51.504;7.456;2022-10-16T12:16:50;3.1;;;0.8;;
37365;SDS011;23239;51.504;7.456;2022-10-16T12:21:43;2.3;;;0.7;;
37365;SDS011;23239;51.504;7.456;2022-10-16T12:26:44;1.3;;;0.6;;
37365;SDS011;23239;51.504;7.456;2022-10-16T12:31:44;1.3;;;0.6;;
37365;SDS011;23239;51.504;7.456;2022-10-16T12:36:43;2.4;;;0.7;;
37365;SDS011;23239;51.504;7.456;2022-10-16T12:41:43;4.4;;;1.1;;
37365;SDS011;23239;51.504;7.456;2022-10-16T12:46:43;1.7;;;0.6;;
37365;SDS011;23239;51.504;7.456;2022-10-16T12:51:43;1.9;;;0.7;;
37365;SDS011;23239;51.504;7.456;2022-10-16T12:56:47;3.1;;;0.6;;
37365;SDS011;23239;51.504;7.456;2022-10-16T13:01:49;1.6;;;0.7;;
37365;SDS011;23239;51.504;7.456;2022-10-16T13:06:45;1.5;;;0.7;;
37365;SDS011;23239;51.504;7.456;2022-10-16T13:11:48;1.6;;;0.6;;
37365;SDS011;23239;51.504;7.456;2022-10-16T13:16:46;2;;;0.6;;
37365;SDS011;23239;51.504;7.456;2022-10-16T13:21:45;1.8;;;0.9;;
37365;SDS011;23239;51.504;7.456;2022-10-16T13:26:44;2.4;;;0.7;;
37365;SDS011;23239;51.504;7.456;2022-10-16T13:31:43;2.8;;;0.8;;
37365;SDS011;23239;51.504;7.456;2022-10-16T13:36:44;2;;;0.8;;
37365;SDS011;23239;51.504;7.456;2022-10-16T13:41:43;2.1;;;0.9;;
37365;SDS011;23239;51.504;7.456;2022-10-16T13:46:43;3.5;;;0.7;;
37365;SDS011;23239;51.504;7.456;2022-10-16T13:51:53;3.2;;;1;;
37365;SDS011;23239;51.504;7.456;2022-10-16T13:56:43;3;;;0.8;;
37365;SDS011;23239;51.504;7.456;2022-10-16T14:01:43;3.8;;;1;;
37365;SDS011;23239;51.504;7.456;2022-10-16T14:06:44;2.4;;;0.8;;
37365;SDS011;23239;51.504;7.456;2022-10-16T14:11:44;1.8;;;0.6;;
37365;SDS011;23239;51.504;7.456;2022-10-16T14:16:43;2.4;;;0.7;;
37365;SDS011;23239;51.504;7.456;2022-10-16T14:21:43;2.8;;;0.8;;
37365;SDS011;23239;51.504;7.456;2022-10-16T14:26:44;2.2;;;0.7;;
37365;SDS011;23239;51.504;7.456;2022-10-16T14:31:53;2;;;0.8;;
37365;SDS011;23239;51.504;7.456;2022-10-16T14:36:43;4;;;0.8;;
37365;SDS011;23239;51.504;7.456;2022-10-16T14:41:44;3.1;;;0.9;;
37365;SDS011;23239;51.504;7.456;2022-10-16T14:46:43;2.2;;;1;;
37365;SDS011;23239;51.504;7.456;2022-10-16T14:51:43;2.3;;;0.7;;
37365;SDS011;23239;51.504;7.456;2022-10-16T14:56:45;1.6;;;0.8;;
37365;SDS011;23239;51.504;7.456;2022-10-16T15:01:43;2.1;;;0.8;;
37365;SDS011;23239;51.504;7.456;2022-10-16T15:06:43;2;;;0.8;;
37365;SDS011;23239;51.504;7.456;2022-10-16T15:11:43;3.4;;;1.1;;
37365;SDS011;23239;51.504;7.456;2022-10-16T15:16:43;2;;;0.8;;
37365;SDS011;23239;51.504;7.456;2022-10-16T15:21:43;3.3;;;1.2;;
37365;SDS011;23239;51.504;7.456;2022-10-16T15:26:43;3.2;;;1;;
37365;SDS011;23239;51.504;7.456;2022-10-16T15:31:43;4.4;;;1.3;;
37365;SDS011;23239;51.504;7.456;2022-10-16T15:36:43;5.1;;;1.7;;
37365;SDS011;23239;51.504;7.456;2022-10-16T15:41:44;5.3;;;1.7;;
37365;SDS011;23239;51.504;7.456;2022-10-16T15:46:43;3.7;;;1.6;;
37365;SDS011;23239;51.504;7.456;2022-10-16T15:51:43;2.6;;;1.2;;
37365;SDS011;23239;51.504;7.456;2022-10-16T15:56:43;3.4;;;1.4;;
37365;SDS011;23239;51.504;7.456;2022-10-16T16:01:43;2.6;;;1.2;;
37365;SDS011;23239;51.504;7.456;2022-10-16T16:06:43;2.5;;;1.3;;
37365;SDS011;23239;51.504;7.456;2022-10-16T16:11:43;4.5;;;1.7;;
37365;SDS011;23239;51.504;7.456;2022-10-16T16:16:43;5;;;2.3;;
37365;SDS011;23239;51.504;7.456;2022-10-16T16:21:43;6.7;;;2.1;;
37365;SDS011;23239;51.504;7.456;2022-10-16T16:26:43;6.1;;;2.5;;
37365;SDS011;23239;51.504;7.456;2022-10-16T16:31:43;5.9;;;2.2;;
37365;SDS011;23239;51.504;7.456;2022-10-16T16:36:43;5.3;;;2;;
37365;SDS011;23239;51.504;7.456;2022-10-16T16:41:43;4.7;;;1.9;;
37365;SDS011;23239;51.504;7.456;2022-10-16T16:46:44;4.3;;;1.7;;
37365;SDS011;23239;51.504;7.456;2022-10-16T16:51:43;2.8;;;1.3;;
37365;SDS011;23239;51.504;7.456;2022-10-16T16:56:43;2.1;;;1.3;;
37365;SDS011;23239;51.504;7.456;2022-10-16T17:01:43;5.3;;;1.9;;
37365;SDS011;23239;51.504;7.456;2022-10-16T17:06:43;7.5;;;2.6;;
37365;SDS011;23239;51.504;7.456;2022-10-16T17:11:43;4;;;2.2;;
37365;SDS011;23239;51.504;7.456;2022-10-16T17:16:43;5.7;;;2.4;;
37365;SDS011;23239;51.504;7.456;2022-10-16T17:21:43;8.3;;;3.3;;
37365;SDS011;23239;51.504;7.456;2022-10-16T17:26:43;7.8;;;3.5;;
37365;SDS011;23239;51.504;7.456;2022-10-16T17:31:44;6.2;;;2.9;;
37365;SDS011;23239;51.504;7.456;2022-10-16T17:36:43;6.6;;;3.9;;
37365;SDS011;23239;51.504;7.456;2022-10-16T17:41:43;6.5;;;3.7;;
37365;SDS011;23239;51.504;7.456;2022-10-16T17:46:43;5.9;;;2.8;;
37365;SDS011;23239;51.504;7.456;2022-10-16T17:51:43;5.9;;;2.9;;
37365;SDS011;23239;51.504;7.456;2022-10-16T17:56:43;4.2;;;2;;
37365;SDS011;23239;51.504;7.456;2022-10-16T18:01:43;2.4;;;1.8;;
37365;SDS011;23239;51.504;7.456;2022-10-16T18:06:44;4.8;;;1.9;;
37365;SDS011;23239;51.504;7.456;2022-10-16T18:11:43;4.9;;;1.9;;
37365;SDS011;23239;51.504;7.456;2022-10-16T18:16:43;2.5;;;1.8;;
37365;SDS011;23239;51.504;7.456;2022-10-16T18:21:44;3.6;;;1.8;;
37365;SDS011;23239;51.504;7.456;2022-10-16T18:26:44;2.5;;;1.5;;
37365;SDS011;23239;51.504;7.456;2022-10-16T18:31:43;2.1;;;1.5;;
37365;SDS011;23239;51.504;7.456;2022-10-16T18:36:43;2.8;;;1.6;;
37365;SDS011;23239;51.504;7.456;2022-10-16T18:41:43;4.7;;;1.9;;
37365;SDS011;23239;51.504;7.456;2022-10-16T18:46:43;4.6;;;1.8;;
37365;SDS011;23239;51.504;7.456;2022-10-16T18:51:43;4.3;;;2.2;;
37365;SDS011;23239;51.504;7.456;2022-10-16T18:56:43;10;;;2.4;;
37365;SDS011;23239;51.504;7.456;2022-10-16T19:01:44;5.6;;;2.4;;
37365;SDS011;23239;51.504;7.456;2022-10-16T19:06:44;5.7;;;2.4;;
37365;SDS011;23239;51.504;7.456;2022-10-16T19:11:44;3.8;;;2.2;;
37365;SDS011;23239;51.504;7.456;2022-10-16T19:16:43;6.3;;;2.4;;
37365;SDS011;23239;51.504;7.456;2022-10-16T19:21:43;6.7;;;2.4;;
37365;SDS011;23239;51.504;7.456;2022-10-16T19:26:43;6.3;;;2.3;;
37365;SDS011;23239;51.504;7.456;2022-10-16T19:31:43;4.5;;;2;;
37365;SDS011;23239;51.504;7.456;2022-10-16T19:36:43;4.7;;;2.2;;
37365;SDS011;23239;51.504;7.456;2022-10-16T19:41:44;10.7;;;2.7;;
37365;SDS011;23239;51.504;7.456;2022-10-16T19:46:44;7.3;;;2.9;;
37365;SDS011;23239;51.504;7.456;2022-10-16T19:51:44;7.8;;;2.7;;
37365;SDS011;23239;51.504;7.456;2022-10-16T19:56:43;7.7;;;3.1;;
37365;SDS011;23239;51.504;7.456;2022-10-16T20:01:44;7;;;2.6;;
37365;SDS011;23239;51.504;7.456;2022-10-16T20:06:43;9.7;;;3.2;;
37365;SDS011;23239;51.504;7.456;2022-10-16T20:11:43;9.2;;;3.6;;
37365;SDS011;23239;51.504;7.456;2022-10-16T20:16:43;7;;;4.3;;
37365;SDS011;23239;51.504;7.456;2022-10-16T20:21:43;7.7;;;3.7;;
37365;SDS011;23239;51.504;7.456;2022-10-16T20:26:43;10.7;;;4.2;;
37365;SDS011;23239;51.504;7.456;2022-10-16T20:31:44;8.3;;;4;;
37365;SDS011;23239;51.504;7.456;2022-10-16T20:36:43;8.8;;;4;;
37365;SDS011;23239;51.504;7.456;2022-10-16T20:41:43;8.3;;;4.2;;
37365;SDS011;23239;51.504;7.456;2022-10-16T20:46:43;9.8;;;4;;
37365;SDS011;23239;51.504;7.456;2022-10-16T20:51:44;8.7;;;4.3;;
37365;SDS011;23239;51.504;7.456;2022-10-16T20:56:43;9.1;;;4.7;;
37365;SDS011;23239;51.504;7.456;2022-10-16T21:01:43;6.7;;;4.5;;
37365;SDS011;23239;51.504;7.456;2022-10-16T21:06:43;7.6;;;4.3;;
37365;SDS011;23239;51.504;7.456;2022-10-16T21:11:44;9;;;5;;
37365;SDS011;23239;51.504;7.456;2022-10-16T21:16:43;12.6;;;7.3;;
37365;SDS011;23239;51.504;7.456;2022-10-16T21:21:43;7.6;;;5.5;;
37365;SDS011;23239;51.504;7.456;2022-10-16T21:26:43;8.1;;;4.9;;
37365;SDS011;23239;51.504;7.456;2022-10-16T21:31:44;7.8;;;4.5;;
37365;SDS011;23239;51.504;7.456;2022-10-16T21:36:43;9;;;5.2;;
37365;SDS011;23239;51.504;7.456;2022-10-16T21:41:44;8.8;;;5.2;;
37365;SDS011;23239;51.504;7.456;2022-10-16T21:46:45;7.9;;;4.6;;
37365;SDS011;23239;51.504;7.456;2022-10-16T21:51:44;6.4;;;3.9;;
37365;SDS011;23239;51.504;7.456;2022-10-16T21:56:44;5;;;3.6;;
37365;SDS011;23239;51.504;7.456;2022-10-16T22:01:43;6.2;;;4;;
37365;SDS011;23239;51.504;7.456;2022-10-16T22:06:44;8.5;;;4.6;;
37365;SDS011;23239;51.504;7.456;2022-10-16T22:11:44;6.9;;;4.5;;
37365;SDS011;23239;51.504;7.456;2022-10-16T22:16:44;5.4;;;3.9;;
37365;SDS011;23239;51.504;7.456;2022-10-16T22:21:44;4;;;3.6;;
37365;SDS011;23239;51.504;7.456;2022-10-16T22:26:44;5.4;;;3.9;;
37365;SDS011;23239;51.504;7.456;2022-10-16T22:31:44;4.5;;;3.4;;
37365;SDS011;23239;51.504;7.456;2022-10-16T22:36:44;7.7;;;3.4;;
37365;SDS011;23239;51.504;7.456;2022-10-16T22:41:43;5;;;3.2;;
37365;SDS011;23239;51.504;7.456;2022-10-16T22:46:43;4.2;;;3.4;;
37365;SDS011;23239;51.504;7.456;2022-10-16T22:51:44;6.4;;;4.3;;
37365;SDS011;23239;51.504;7.456;2022-10-16T22:56:44;5.9;;;3.6;;
37365;SDS011;23239;51.504;7.456;2022-10-16T23:01:44;5.7;;;3.8;;
37365;SDS011;23239;51.504;7.456;2022-10-16T23:06:44;5.2;;;3.8;;
37365;SDS011;23239;51.504;7.456;2022-10-16T23:11:44;4.8;;;3.9;;
37365;SDS011;23239;51.504;7.456;2022-10-16T23:16:44;5.2;;;3.9;;
37365;SDS011;23239;51.504;7.456;2022-10-16T23:21:44;6.8;;;4.2;;
37365;SDS011;23239;51.504;7.456;2022-10-16T23:26:43;6.7;;;4.6;;
37365;SDS011;23239;51.504;7.456;2022-10-16T23:31:44;6.1;;;4.7;;
37365;SDS011;23239;51.504;7.456;2022-10-16T23:36:44;7.4;;;4.7;;
37365;SDS011;23239;51.504;7.456;2022-10-16T23:41:44;7;;;5.1;;
37365;SDS011;23239;51.504;7.456;2022-10-16T23:46:44;8;;;5.4;;
37365;SDS011;23239;51.504;7.456;2022-10-16T23:51:44;7.2;;;4.9;;
37365;SDS011;23239;51.504;7.456;2022-10-16T23:56:44;6.4;;;4.7;;
